createdAt,value
2018-11-20T00:02:08.471Z,1.10
2018-11-20T00:04:32.857Z,1.13
2018-11-20T00:07:01.235Z,1.30
2018-11-20T00:09:28.077Z,1.40
2018-11-20T00:11:45.899Z,1.10
2018-11-20T00:14:09.887Z,1.40
2018-11-20T00:16:41.747Z,1.30
2018-11-20T00:19:09.921Z,1.30
2018-11-20T00:21:28.031Z,1.23
2018-11-20T00:23:53.572Z,1.20
2018-11-20T00:26:19.599Z,1.20
2018-11-20T00:28:44.599Z,1.27
2018-11-20T00:31:16.151Z,1.20
2018-11-20T00:33:35.841Z,1.30
2018-11-20T00:36:10.067Z,1.20
2018-11-20T00:38:38.424Z,1.27
2018-11-20T00:41:06.807Z,1.20
2018-11-20T00:43:31.279Z,1.03
2018-11-20T00:45:52.644Z,1.13
2018-11-20T00:48:27.846Z,1.43
2018-11-20T00:50:53.349Z,1.60
2018-11-20T00:53:18.785Z,1.57
2018-11-20T00:56:17.356Z,1.30
2018-11-20T00:58:43.482Z,1.30
2018-11-20T01:01:09.995Z,1.40
2018-11-20T01:03:40.829Z,1.60
2018-11-20T01:06:26.582Z,1.50
2018-11-20T01:08:51.641Z,1.77
2018-11-20T01:11:19.507Z,1.60
2018-11-20T01:13:51.373Z,1.60
2018-11-20T01:16:16.890Z,1.30
2018-11-20T01:18:44.972Z,1.23
2018-11-20T01:21:08.187Z,1.33
2018-11-20T01:23:33.010Z,1.30
2018-11-20T01:25:58.420Z,1.57
2018-11-20T01:28:29.870Z,1.37
2018-11-20T01:31:10.232Z,1.70
2018-11-20T01:33:34.412Z,1.10
2018-11-20T01:36:14.977Z,1.30
2018-11-20T01:38:32.826Z,1.63
2018-11-20T01:41:01.304Z,1.73
2018-11-20T01:43:25.041Z,2.50
2018-11-20T01:45:49.155Z,2.50
2018-11-20T01:48:23.869Z,2.30
2018-11-20T01:50:41.007Z,2.30
2018-11-20T01:53:02.611Z,3.00
2018-11-20T01:55:20.870Z,2.03
2018-11-20T01:57:56.598Z,2.07
2018-11-20T02:00:20.022Z,1.80
2018-11-20T02:02:44.553Z,1.67
2018-11-20T02:05:02.557Z,1.70
2018-11-20T02:07:34.552Z,1.40
2018-11-20T02:10:13.073Z,1.10
2018-11-20T02:12:43.992Z,1.27
2018-11-20T02:15:10.443Z,1.10
2018-11-20T02:17:44.868Z,1.23
2018-11-20T02:20:13.701Z,1.03
2018-11-20T02:22:52.783Z,1.10
2018-11-20T02:25:32.026Z,1.30
2018-11-20T02:27:56.923Z,1.20
2018-11-20T02:30:22.326Z,1.10
2018-11-20T02:32:48.348Z,1.27
2018-11-20T02:35:14.885Z,1.43
2018-11-20T02:37:38.783Z,1.37
2018-11-20T02:40:04.171Z,1.23
2018-11-20T02:42:18.171Z,1.13
2018-11-20T02:44:42.905Z,0.90
2018-11-20T02:47:08.418Z,1.27
2018-11-20T02:49:44.376Z,1.00
2018-11-20T02:52:09.275Z,0.90
2018-11-20T02:54:37.605Z,1.20
2018-11-20T02:57:08.695Z,0.90
2018-11-20T02:59:33.468Z,0.90
2018-11-20T03:02:05.246Z,1.10
2018-11-20T03:04:25.621Z,1.13
2018-11-20T03:06:51.766Z,1.13
2018-11-20T03:09:15.452Z,1.10
2018-11-20T03:11:56.490Z,1.13
2018-11-20T03:14:24.918Z,0.90
2018-11-20T03:17:11.600Z,0.83
2018-11-20T03:19:38.136Z,0.80
2018-11-20T03:22:09.998Z,1.00
2018-11-20T03:24:36.209Z,0.90
2018-11-20T03:27:21.811Z,0.90
2018-11-20T03:30:37.704Z,0.90
2018-11-20T03:33:09.359Z,1.00
2018-11-20T03:35:37.022Z,1.20
2018-11-20T03:38:08.370Z,1.10
2018-11-20T03:40:50.779Z,1.10
2018-11-20T03:43:15.934Z,1.10
2018-11-20T03:45:31.052Z,0.80
2018-11-20T03:47:55.613Z,0.87
2018-11-20T03:50:33.751Z,1.00
2018-11-20T03:53:08.784Z,0.83
2018-11-20T03:55:32.659Z,0.83
2018-11-20T03:58:08.689Z,1.03
2018-11-20T04:00:26.044Z,0.90
2018-11-20T04:03:03.432Z,0.70
2018-11-20T04:05:32.117Z,0.90
2018-11-20T04:08:03.980Z,1.10
2018-11-20T04:10:32.150Z,1.10
2018-11-20T04:13:06.675Z,1.30
2018-11-20T04:15:43.964Z,1.20
2018-11-20T04:18:07.939Z,1.10
2018-11-20T04:20:33.763Z,1.50
2018-11-20T04:23:14.324Z,1.20
2018-11-20T04:25:42.570Z,1.30
2018-11-20T04:28:06.373Z,1.20
2018-11-20T04:30:58.719Z,1.70
2018-11-20T04:33:54.637Z,1.50
2018-11-20T04:36:15.353Z,1.53
2018-11-20T04:38:39.744Z,1.50
2018-11-20T04:41:10.598Z,1.87
2018-11-20T04:43:27.447Z,1.70
2018-11-20T04:45:53.494Z,1.70
2018-11-20T04:48:24.424Z,1.60
2018-11-20T04:50:48.820Z,1.50
2018-11-20T04:53:11.362Z,1.90
2018-11-20T04:55:52.132Z,1.30
2018-11-20T04:58:21.023Z,1.63
2018-11-20T05:00:45.516Z,1.23
2018-11-20T05:03:30.071Z,1.60
2018-11-20T05:05:54.046Z,1.60
2018-11-20T05:08:26.009Z,1.40
2018-11-20T05:11:06.580Z,1.60
2018-11-20T05:13:44.887Z,1.67
2018-11-20T05:16:09.480Z,1.40
2018-11-20T05:18:28.006Z,1.70
2018-11-20T05:20:51.603Z,1.90
2018-11-20T05:23:15.672Z,1.60
2018-11-20T05:25:58.557Z,2.00
2018-11-20T05:28:22.775Z,1.50
2018-11-20T05:31:07.077Z,1.40
2018-11-20T05:33:32.434Z,1.60
2018-11-20T05:35:55.645Z,1.50
2018-11-20T05:38:23.663Z,1.20
2018-11-20T05:40:47.587Z,1.43
2018-11-20T05:43:19.097Z,1.30
2018-11-20T05:45:45.729Z,1.30
2018-11-20T05:48:17.505Z,1.30
2018-11-20T05:50:42.168Z,1.93
2018-11-20T05:53:19.677Z,1.27
2018-11-20T05:55:44.261Z,1.03
2018-11-20T05:58:04.687Z,1.30
2018-11-20T06:00:30.878Z,1.67
2018-11-20T06:03:05.205Z,1.30
2018-11-20T06:05:30.313Z,1.30
2018-11-20T06:08:02.990Z,1.30
2018-11-20T06:10:23.437Z,1.40
2018-11-20T06:12:49.583Z,1.30
2018-11-20T06:15:13.483Z,1.23
2018-11-20T06:17:39.096Z,1.10
2018-11-20T06:20:14.030Z,1.33
2018-11-20T06:22:37.612Z,1.40
2018-11-20T06:25:03.314Z,1.27
2018-11-20T06:27:35.507Z,1.17
2018-11-20T06:30:13.179Z,1.13
2018-11-20T06:32:50.677Z,1.30
2018-11-20T06:35:14.551Z,1.20
2018-11-20T06:37:38.931Z,1.00
2018-11-20T06:40:03.113Z,1.20
2018-11-20T06:42:27.173Z,1.00
2018-11-20T06:44:54.373Z,1.10
2018-11-20T06:47:19.671Z,0.80
2018-11-20T06:49:45.366Z,0.90
2018-11-20T06:52:25.638Z,1.07
2018-11-20T06:55:00.145Z,1.10
2018-11-20T06:57:18.324Z,1.00
2018-11-20T06:59:42.673Z,1.10
2018-11-20T07:02:06.547Z,1.30
2018-11-20T07:04:29.764Z,1.10
2018-11-20T07:06:54.088Z,1.00
2018-11-20T07:09:28.714Z,0.97
2018-11-20T07:11:53.208Z,1.10
2018-11-20T07:14:35.522Z,0.97
2018-11-20T07:17:02.457Z,1.17
2018-11-20T07:19:46.297Z,1.20
2018-11-20T07:22:30.044Z,1.00
2018-11-20T07:25:05.386Z,1.03
2018-11-20T07:27:31.417Z,1.00
2018-11-20T07:33:03.799Z,1.20
2018-11-20T07:35:35.760Z,0.80
2018-11-20T07:38:20.232Z,1.00
2018-11-20T07:40:43.553Z,0.93
2018-11-20T07:43:03.246Z,0.97
2018-11-20T07:45:28.625Z,0.90
2018-11-20T07:47:52.434Z,1.00
2018-11-20T07:50:26.659Z,0.77
2018-11-20T07:53:01.484Z,1.00
2018-11-20T07:55:36.945Z,0.93
2018-11-20T07:58:00.595Z,0.90
2018-11-20T08:00:29.282Z,0.90
2018-11-20T08:02:53.024Z,0.90
2018-11-20T08:05:10.079Z,0.90
2018-11-20T08:07:39.662Z,1.17
2018-11-20T08:10:08.250Z,1.00
2018-11-20T08:12:32.131Z,1.00
2018-11-20T08:14:53.988Z,1.03
2018-11-20T08:17:24.179Z,0.80
2018-11-20T08:19:48.155Z,0.67
2018-11-20T08:22:16.229Z,0.90
2018-11-20T08:24:52.085Z,0.90
2018-11-20T08:27:16.778Z,0.90
2018-11-20T08:29:40.854Z,0.90
2018-11-20T08:32:06.367Z,0.97
2018-11-20T08:34:44.684Z,1.07
2018-11-20T08:37:13.217Z,1.03
2018-11-20T08:39:37.142Z,1.00
2018-11-20T08:42:18.018Z,0.63
2018-11-20T08:44:41.240Z,0.87
2018-11-20T08:47:06.589Z,0.80
2018-11-20T08:49:41.598Z,0.90
2018-11-20T08:52:13.165Z,0.90
2018-11-20T08:54:37.140Z,1.00
2018-11-20T08:57:03.004Z,1.00
2018-11-20T08:59:43.838Z,0.80
2018-11-20T09:02:21.582Z,0.83
2018-11-20T09:04:49.807Z,0.80
2018-11-20T09:07:23.934Z,0.70
2018-11-20T09:09:48.868Z,1.07
2018-11-20T09:12:29.692Z,0.77
2018-11-20T09:15:10.258Z,0.80
2018-11-20T09:17:34.441Z,0.77
2018-11-20T09:19:58.559Z,0.70
2018-11-20T09:22:42.460Z,0.70
2018-11-20T09:25:00.988Z,0.87
2018-11-20T09:27:38.433Z,0.60
2018-11-20T09:30:10.057Z,0.67
2018-11-20T09:32:34.652Z,0.90
2018-11-20T09:35:01.257Z,0.70
2018-11-20T09:37:26.798Z,0.70
2018-11-20T09:39:57.224Z,0.70
2018-11-20T09:42:31.751Z,0.70
2018-11-20T09:45:36.889Z,0.70
2018-11-20T09:48:02.200Z,0.70
2018-11-20T09:50:30.064Z,0.90
2018-11-20T09:52:53.783Z,0.80
2018-11-20T09:55:18.119Z,0.73
2018-11-20T09:57:46.497Z,0.80
2018-11-20T10:00:10.078Z,0.90
2018-11-20T10:02:44.690Z,0.80
2018-11-20T10:05:20.217Z,0.70
2018-11-20T10:07:42.722Z,0.70
2018-11-20T10:10:14.334Z,0.90
2018-11-20T10:12:48.028Z,0.70
2018-11-20T10:15:13.394Z,0.80
2018-11-20T10:17:39.063Z,0.70
2018-11-20T10:20:10.515Z,0.80
2018-11-20T10:22:35.515Z,0.73
2018-11-20T10:25:01.484Z,0.70
2018-11-20T10:27:25.313Z,0.70
2018-11-20T10:29:49.798Z,0.60
2018-11-20T10:32:24.327Z,0.63
2018-11-20T10:35:01.632Z,0.60
2018-11-20T10:37:36.254Z,0.60
2018-11-20T10:40:00.927Z,0.63
2018-11-20T10:42:21.948Z,0.70
2018-11-20T10:44:40.530Z,0.60
2018-11-20T10:47:05.995Z,0.53
2018-11-20T10:49:25.876Z,0.50
2018-11-20T10:52:04.188Z,0.50
2018-11-20T10:54:28.265Z,0.70
2018-11-20T10:56:52.244Z,0.60
2018-11-20T10:59:18.062Z,0.53
2018-11-20T11:01:42.242Z,0.60
2018-11-20T11:04:07.764Z,0.80
2018-11-20T11:06:31.581Z,0.87
2018-11-20T11:09:05.741Z,0.50
2018-11-20T11:11:30.823Z,0.60
2018-11-20T11:14:08.146Z,0.70
2018-11-20T11:16:51.771Z,0.60
2018-11-20T11:19:17.184Z,0.50
2018-11-20T11:21:43.101Z,0.50
2018-11-20T11:24:02.228Z,0.67
2018-11-20T11:26:42.831Z,0.70
2018-11-20T11:29:11.584Z,0.60
2018-11-20T11:31:35.494Z,0.60
2018-11-20T11:34:03.835Z,0.70
2018-11-20T11:36:35.838Z,0.60
2018-11-20T11:38:59.295Z,0.60
2018-11-20T11:41:24.274Z,0.60
2018-11-20T11:43:47.329Z,0.60
2018-11-20T11:46:31.198Z,0.60
2018-11-20T11:49:01.215Z,0.60
2018-11-20T11:51:29.598Z,0.60
2018-11-20T11:54:01.046Z,0.43
2018-11-20T11:56:25.635Z,0.60
2018-11-20T11:58:51.151Z,0.50
2018-11-20T12:01:15.299Z,0.60
2018-11-20T12:03:40.758Z,0.70
2018-11-20T12:06:04.243Z,0.60
2018-11-20T12:08:18.841Z,0.50
2018-11-20T12:10:43.143Z,0.60
2018-11-20T12:15:40.234Z,0.50
2018-11-20T12:18:04.701Z,0.60
2018-11-20T12:20:46.185Z,0.50
2018-11-20T12:23:10.467Z,0.50
2018-11-20T12:25:41.716Z,0.53
2018-11-20T12:28:10.197Z,0.50
2018-11-20T12:30:44.935Z,0.60
2018-11-20T12:33:10.007Z,0.40
2018-11-20T12:35:36.182Z,0.63
2018-11-20T12:38:02.381Z,0.40
2018-11-20T12:40:26.973Z,0.47
2018-11-20T12:42:45.542Z,0.40
2018-11-20T12:45:13.537Z,0.50
2018-11-20T12:47:50.251Z,0.43
2018-11-20T12:50:26.233Z,0.47
2018-11-20T12:52:48.772Z,0.50
2018-11-20T12:55:14.484Z,0.50
2018-11-20T12:57:38.973Z,0.40
2018-11-20T13:00:03.157Z,0.50
2018-11-20T13:02:31.329Z,0.50
2018-11-20T13:04:56.575Z,0.50
2018-11-20T13:07:24.709Z,0.50
2018-11-20T13:09:48.787Z,0.50
2018-11-20T13:12:14.306Z,0.50
2018-11-20T13:14:38.586Z,0.50
2018-11-20T13:17:11.242Z,0.50
2018-11-20T13:19:35.722Z,0.50
2018-11-20T13:21:59.536Z,0.30
2018-11-20T13:24:20.182Z,0.47
2018-11-20T13:26:44.604Z,0.37
2018-11-20T13:29:16.057Z,0.40
2018-11-20T13:31:59.813Z,0.30
2018-11-20T13:34:25.272Z,0.50
2018-11-20T13:37:09.756Z,0.30
2018-11-20T13:39:28.183Z,0.40
2018-11-20T13:42:07.039Z,0.40
2018-11-20T13:44:31.220Z,0.50
2018-11-20T13:46:59.599Z,0.70
2018-11-20T13:49:25.526Z,0.40
2018-11-20T13:51:51.811Z,0.97
2018-11-20T13:54:14.701Z,0.60
2018-11-20T13:56:55.079Z,0.80
2018-11-20T13:59:19.343Z,0.63
2018-11-20T14:01:44.494Z,0.90
2018-11-20T14:04:08.867Z,0.80
2018-11-20T14:06:38.133Z,0.70
2018-11-20T14:09:09.379Z,0.90
2018-11-20T14:11:36.584Z,0.77
2018-11-20T14:14:02.962Z,1.20
2018-11-20T14:16:27.248Z,0.90
2018-11-20T14:18:52.766Z,0.83
2018-11-20T14:21:25.905Z,0.70
2018-11-20T14:23:57.609Z,0.80
2018-11-20T14:26:22.916Z,0.90
2018-11-20T14:28:54.367Z,1.00
2018-11-20T14:31:12.140Z,1.30
2018-11-20T14:33:40.581Z,0.93
2018-11-20T14:36:01.364Z,1.10
2018-11-20T14:38:27.200Z,0.90
2018-11-20T14:40:55.644Z,2.37
2018-11-20T14:43:26.826Z,1.23
2018-11-20T14:45:49.139Z,1.37
2018-11-20T14:48:18.362Z,1.30
2018-11-20T14:50:35.145Z,1.70
2018-11-20T14:53:02.099Z,1.73
2018-11-20T14:55:45.958Z,2.00
2018-11-20T14:58:17.215Z,2.03
2018-11-20T15:00:42.384Z,1.63
2018-11-20T15:03:06.486Z,1.30
2018-11-20T15:05:38.144Z,1.93
2018-11-20T15:07:59.360Z,1.63
2018-11-20T15:10:36.131Z,1.83
2018-11-20T15:13:07.583Z,1.37
2018-11-20T15:15:36.268Z,1.50
2018-11-20T15:18:00.248Z,1.43
2018-11-20T15:20:24.733Z,1.43
2018-11-20T15:23:08.164Z,1.33
2018-11-20T15:25:34.142Z,1.57
2018-11-20T15:28:11.785Z,1.63
2018-11-20T15:30:25.394Z,1.43
2018-11-20T15:32:49.601Z,1.77
2018-11-20T15:35:21.668Z,1.77
2018-11-20T15:37:47.079Z,1.33
2018-11-20T15:40:09.075Z,1.90
2018-11-20T15:42:33.491Z,1.30
2018-11-20T15:45:12.212Z,1.57
2018-11-20T15:47:27.732Z,1.87
2018-11-20T15:49:53.203Z,1.13
2018-11-20T15:52:11.413Z,1.33
2018-11-20T15:54:36.548Z,1.30
2018-11-20T15:57:06.118Z,1.30
2018-11-20T15:59:46.720Z,1.50
2018-11-20T16:02:12.746Z,2.47
2018-11-20T16:04:56.280Z,1.50
2018-11-20T16:07:27.729Z,1.27
2018-11-20T16:09:52.629Z,1.33
2018-11-20T16:12:17.832Z,1.10
2018-11-20T16:14:42.935Z,1.10
2018-11-20T16:17:16.816Z,1.23
2018-11-20T16:19:44.200Z,1.00
2018-11-20T16:22:23.624Z,1.10
2018-11-20T16:24:48.435Z,1.33
2018-11-20T16:27:12.307Z,1.40
2018-11-20T16:29:35.979Z,1.00
2018-11-20T16:31:59.770Z,0.93
2018-11-20T16:34:33.752Z,0.90
2018-11-20T16:37:08.830Z,1.17
2018-11-20T16:39:32.873Z,1.10
2018-11-20T16:42:05.086Z,1.10
2018-11-20T16:44:33.627Z,0.97
2018-11-20T16:46:58.947Z,1.00
2018-11-20T16:49:16.328Z,1.00
2018-11-20T16:51:41.683Z,1.20
2018-11-20T16:54:06.956Z,1.00
2018-11-20T16:56:30.639Z,1.07
2018-11-20T16:58:56.276Z,1.00
2018-11-20T17:01:21.151Z,1.10
2018-11-20T17:03:49.839Z,0.77
2018-11-20T17:06:13.189Z,0.80
2018-11-20T17:08:37.175Z,1.20
2018-11-20T17:11:13.382Z,1.10
2018-11-20T17:13:34.331Z,0.83
2018-11-20T17:15:59.041Z,1.00
2018-11-20T17:18:25.895Z,1.00
2018-11-20T17:20:51.085Z,0.90
2018-11-20T17:23:15.883Z,1.00
2018-11-20T17:25:53.580Z,0.97
2018-11-20T17:28:17.763Z,0.80
2018-11-20T17:30:42.452Z,0.90
2018-11-20T17:33:07.453Z,0.83
2018-11-20T17:35:31.840Z,0.80
2018-11-20T17:38:13.121Z,0.80
2018-11-20T17:40:37.507Z,1.00
2018-11-20T17:43:11.233Z,0.90
2018-11-20T17:45:35.497Z,0.80
2018-11-20T17:48:01.313Z,0.90
2018-11-20T17:50:25.917Z,1.23
2018-11-20T17:52:52.234Z,0.87
2018-11-20T17:55:18.054Z,0.80
2018-11-20T17:57:43.465Z,0.80
2018-11-20T18:00:07.443Z,0.83
2018-11-20T18:02:36.129Z,0.87
2018-11-20T18:05:09.911Z,0.80
2018-11-20T18:07:44.559Z,1.10
2018-11-20T18:10:15.702Z,0.93
2018-11-20T18:12:50.166Z,0.87
2018-11-20T18:15:09.269Z,0.80
2018-11-20T18:17:34.370Z,0.90
2018-11-20T18:20:12.806Z,1.03
2018-11-20T18:22:53.124Z,0.80
2018-11-20T18:25:34.140Z,0.90
2018-11-20T18:27:50.500Z,0.70
2018-11-20T18:30:19.023Z,0.70
2018-11-20T18:32:52.907Z,0.73
2018-11-20T18:35:15.172Z,0.80
2018-11-20T18:37:44.469Z,0.80
2018-11-20T18:40:12.846Z,0.70
2018-11-20T18:42:32.680Z,0.80
2018-11-20T18:45:07.761Z,0.97
2018-11-20T18:47:45.561Z,0.70
2018-11-20T18:50:11.382Z,0.87
2018-11-20T18:52:36.896Z,0.70
2018-11-20T18:55:03.922Z,0.70
2018-11-20T18:57:35.984Z,0.90
2018-11-20T19:00:16.713Z,0.70
2018-11-20T19:02:41.167Z,0.80
2018-11-20T19:05:18.452Z,0.60
2018-11-20T19:07:47.414Z,0.60
2018-11-20T19:10:13.779Z,0.73
2018-11-20T19:12:38.264Z,0.80
2018-11-20T19:15:11.501Z,0.70
2018-11-20T19:17:44.239Z,1.13
2018-11-20T19:20:08.729Z,0.80
2018-11-20T19:22:50.421Z,0.90
2018-11-20T19:25:22.280Z,0.87
2018-11-20T19:27:46.567Z,0.77
2018-11-20T19:30:13.096Z,0.90
2018-11-20T19:32:46.807Z,0.73
2018-11-20T19:35:12.419Z,0.80
2018-11-20T19:37:52.442Z,1.10
2018-11-20T19:40:19.776Z,1.57
2018-11-20T19:42:48.065Z,1.47
2018-11-20T19:45:08.804Z,1.40
2018-11-20T19:47:33.582Z,1.93
2018-11-20T19:50:02.289Z,2.10
2018-11-20T19:52:33.705Z,1.60
2018-11-20T19:55:17.989Z,3.53
2018-11-20T19:57:44.423Z,3.13
2018-11-20T20:00:02.777Z,2.77
2018-11-20T20:02:27.563Z,2.10
2018-11-20T20:05:04.134Z,2.50
2018-11-20T20:07:33.027Z,2.43
2018-11-20T20:09:57.412Z,2.43
2018-11-20T20:12:11.546Z,2.40
2018-11-20T20:14:38.399Z,2.63
2018-11-20T20:17:03.299Z,2.30
2018-11-20T20:19:29.834Z,1.90
2018-11-20T20:22:14.391Z,2.50
2018-11-20T20:24:39.496Z,1.97
2018-11-20T20:27:04.904Z,2.57
2018-11-20T20:29:34.188Z,2.30
2018-11-20T20:32:02.209Z,2.47
2018-11-20T20:34:41.114Z,2.10
2018-11-20T20:37:09.559Z,2.10
2018-11-20T20:39:44.619Z,2.43
2018-11-20T20:42:26.109Z,2.50
2018-11-20T20:44:57.148Z,1.83
2018-11-20T20:47:21.953Z,1.77
2018-11-20T20:49:46.026Z,1.67
2018-11-20T20:52:10.502Z,1.60
2018-11-20T20:54:53.036Z,1.60
2018-11-20T20:57:17.001Z,1.37
2018-11-20T20:59:41.898Z,1.70
2018-11-20T21:02:05.433Z,1.30
2018-11-20T21:04:48.891Z,1.77
2018-11-20T21:07:17.456Z,1.67
2018-11-20T21:10:01.220Z,1.30
2018-11-20T21:12:32.771Z,1.60
2018-11-20T21:15:01.462Z,1.50
2018-11-20T21:17:33.324Z,1.43
2018-11-20T21:19:57.912Z,1.50
2018-11-20T21:22:29.057Z,1.83
2018-11-20T21:25:06.860Z,1.10
2018-11-20T21:27:33.088Z,1.43
2018-11-20T21:30:04.026Z,1.10
2018-11-20T21:32:27.899Z,1.37
2018-11-20T21:35:12.664Z,1.60
2018-11-20T21:37:44.233Z,1.27
2018-11-20T21:40:10.553Z,1.17
2018-11-20T21:42:34.537Z,1.30
2018-11-20T21:45:15.662Z,1.20
2018-11-20T21:47:43.346Z,0.90
2018-11-20T21:50:11.541Z,1.30
2018-11-20T21:52:33.104Z,1.27
2018-11-20T21:55:01.338Z,1.60
2018-11-20T21:57:25.310Z,1.30
2018-11-20T22:00:06.491Z,1.03
2018-11-20T22:02:44.191Z,1.20
2018-11-20T22:06:16.159Z,1.20
2018-11-20T22:08:40.862Z,1.10
2018-11-20T22:11:04.231Z,1.60
2018-11-20T22:13:38.332Z,1.20
2018-11-20T22:16:00.868Z,1.03
2018-11-20T22:18:24.335Z,1.03
2018-11-20T22:20:47.025Z,1.10
2018-11-20T22:23:15.565Z,1.27
2018-11-20T22:25:35.956Z,1.03
2018-11-20T22:27:59.421Z,1.13
2018-11-20T22:30:37.528Z,1.20
2018-11-20T22:33:00.991Z,1.03
2018-11-20T22:35:24.354Z,1.00
